Time;durP1;ratioP1;P1;durP2;ratioP2;P2;SDS_P1;SDS_P2;PMS_P1;PMS_P2;Temp;Humidity;BMP_temperature;BMP_pressure;BME280_temperature;BME280_humidity;BME280_pressure;Samples;Min_cycle;Max_cycle;Signal;HPM_P1;HPM_P2
2023/01/03 00:00:10;;;;;;;0.60;0.55;;;8.60;99.90;;;;;;5042411;28;20486;-76
2023/01/03 00:02:36;;;;;;;;;;;8.50;99.90;;;;;;5043437;28;20017;-76
2023/01/03 00:05:03;;;;;;;0.23;0.23;;;8.60;99.90;;;;;;5042417;28;19958;-76
2023/01/03 00:07:34;;;;;;;0.40;0.40;;;8.60;99.90;;;;;;5041695;28;20140;-77
2023/01/03 00:10:03;;;;;;;0.20;0.20;;;8.60;99.90;;;;;;5033509;28;20025;-77
2023/01/03 00:12:31;;;;;;;0.40;0.40;;;8.60;99.90;;;;;;5042578;28;20040;-77
2023/01/03 00:14:58;;;;;;;0.30;0.30;;;8.70;99.90;;;;;;5042980;28;20367;-76
2023/01/03 00:17:23;;;;;;;;;;;8.60;99.90;;;;;;5042912;28;20040;-77
2023/01/03 00:19:49;;;;;;;0.93;0.93;;;8.60;99.90;;;;;;5042304;28;19913;-77
2023/01/03 00:22:16;;;;;;;0.10;0.10;;;8.60;99.90;;;;;;5042192;28;20760;-77
2023/01/03 00:24:43;;;;;;;;;;;8.60;99.90;;;;;;5047345;28;20093;-76
2023/01/03 00:27:08;;;;;;;;;;;8.60;99.90;;;;;;5042140;28;19927;-77
2023/01/03 00:29:34;;;;;;;0.67;0.50;;;8.50;99.90;;;;;;5042092;28;19913;-77
2023/01/03 00:32:01;;;;;;;0.22;0.22;;;8.30;99.90;;;;;;5042330;28;20040;-78
2023/01/03 00:34:27;;;;;;;0.10;0.10;;;8.20;99.90;;;;;;5042518;28;20032;-77
2023/01/03 00:36:53;;;;;;;0.47;0.47;;;8.20;99.90;;;;;;5045388;28;20060;-77
2023/01/03 00:39:19;;;;;;;0.20;0.20;;;8.10;99.90;;;;;;5045275;28;20546;-77
2023/01/03 00:41:45;;;;;;;1.83;0.70;;;8.10;99.90;;;;;;5041363;28;20029;-77
2023/01/03 00:44:11;;;;;;;0.32;0.32;;;8.10;99.90;;;;;;5043191;28;20037;-77
2023/01/03 00:46:37;;;;;;;0.28;0.28;;;8.00;99.90;;;;;;5042242;28;20562;-77
2023/01/03 00:49:04;;;;;;;0.85;0.85;;;8.00;99.90;;;;;;5047920;28;20037;-77
2023/01/03 00:51:32;;;;;;;0.20;0.20;;;8.00;99.90;;;;;;5040576;28;20025;-77
2023/01/03 00:53:59;;;;;;;0.30;0.30;;;8.10;99.90;;;;;;5040620;28;20032;-77
2023/01/03 00:56:28;;;;;;;0.20;0.20;;;8.10;99.90;;;;;;5041778;28;20029;-78
2023/01/03 00:58:54;;;;;;;0.65;0.65;;;8.30;99.90;;;;;;5040352;28;20060;-77
2023/01/03 01:01:31;;;;;;;2.03;0.50;;;8.50;99.90;;;;;;5041356;28;20036;-77
2023/01/03 01:04:07;;;;;;;0.15;0.15;;;8.40;99.90;;;;;;5041772;28;20318;-77
2023/01/03 01:06:37;;;;;;;0.73;0.50;;;8.40;99.90;;;;;;5044637;28;20036;-77
2023/01/03 01:09:05;;;;;;;0.30;0.30;;;8.40;99.90;;;;;;5041380;28;20128;-78
2023/01/03 01:11:31;;;;;;;2.10;1.13;;;8.40;99.90;;;;;;5041808;28;20123;-78
2023/01/03 01:13:57;;;;;;;0.88;0.88;;;8.30;99.90;;;;;;5039668;28;20407;-76
2023/01/03 01:16:31;;;;;;;0.82;0.82;;;8.30;99.90;;;;;;5041897;28;20055;-77
2023/01/03 01:19:00;;;;;;;0.50;0.50;;;8.30;99.90;;;;;;5039643;28;20068;-76
2023/01/03 01:21:28;;;;;;;0.43;0.43;;;8.30;99.90;;;;;;5040910;28;20051;-76
2023/01/03 01:23:54;;;;;;;0.30;0.30;;;8.30;99.90;;;;;;5041440;28;20810;-76
2023/01/03 01:26:23;;;;;;;0.50;0.37;;;8.30;99.90;;;;;;5041672;28;20059;-76
2023/01/03 01:28:50;;;;;;;0.20;0.20;;;8.30;99.90;;;;;;5042278;28;20040;-76
2023/01/03 01:31:19;;;;;;;0.40;0.40;;;8.30;99.90;;;;;;5043445;28;20135;-76
2023/01/03 01:33:45;;;;;;;1.15;0.75;;;8.30;99.90;;;;;;5045472;28;20116;-77
2023/01/03 01:36:23;;;;;;;0.68;0.68;;;8.30;99.90;;;;;;5044902;28;20090;-76
2023/01/03 01:38:56;;;;;;;0.20;0.20;;;8.20;99.90;;;;;;5041649;28;20108;-76
2023/01/03 01:44:45;;;;;;;0.10;0.10;;;8.20;99.90;;;;;;5045329;28;20036;-77
2023/01/03 01:47:32;;;;;;;2.83;0.90;;;8.10;99.90;;;;;;5044900;28;20159;-76
2023/01/03 01:50:04;;;;;;;0.75;0.50;;;8.00;99.90;;;;;;5045499;28;20033;-76
2023/01/03 01:52:34;;;;;;;1.10;1.00;;;8.00;99.90;;;;;;5044857;28;20132;-76
2023/01/03 01:55:03;;;;;;;0.20;0.20;;;8.00;99.90;;;;;;5045289;28;20108;-76
2023/01/03 01:57:29;;;;;;;27.95;3.25;;;7.90;99.90;;;;;;5043915;28;20376;-76
2023/01/03 01:59:55;;;;;;;0.45;0.45;;;7.90;99.90;;;;;;5045136;28;20078;-76
2023/01/03 02:02:22;;;;;;;0.70;0.70;;;7.90;99.90;;;;;;5045351;28;20048;-77
2023/01/03 02:04:52;;;;;;;0.30;0.30;;;7.90;99.90;;;;;;5044954;28;20112;-77
2023/01/03 02:07:20;;;;;;;0.30;0.30;;;7.90;99.90;;;;;;5043705;28;20049;-77
2023/01/03 02:09:47;;;;;;;0.40;0.40;;;7.90;99.90;;;;;;5044888;28;20036;-78
2023/01/03 02:13:05;;;;;;;1.27;0.50;;;7.90;99.90;;;;;;5044846;28;20029;-77
2023/01/03 02:15:34;;;;;;;0.20;0.20;;;7.90;99.90;;;;;;5041943;28;20037;-77
2023/01/03 02:18:18;;;;;;;2.35;1.00;;;7.90;99.90;;;;;;5044802;28;20033;-77
2023/01/03 02:21:02;;;;;;;0.20;0.20;;;7.90;99.90;;;;;;5037515;28;20029;-77
2023/01/03 02:23:37;;;;;;;0.20;0.20;;;7.90;99.90;;;;;;5043679;28;20040;-77
2023/01/03 02:26:37;;;;;;;0.15;0.15;;;7.90;99.90;;;;;;5044930;28;20179;-77
2023/01/03 02:29:21;;;;;;;0.30;0.30;;;7.90;99.90;;;;;;5039851;28;20120;-77
2023/01/03 02:32:07;;;;;;;0.93;0.93;;;7.90;99.90;;;;;;5044267;28;20027;-77
2023/01/03 02:34:52;;;;;;;0.15;0.15;;;8.00;99.90;;;;;;5041803;28;20033;-76
2023/01/03 02:37:44;;;;;;;0.50;0.50;;;7.90;99.90;;;;;;5044180;28;20396;-76
2023/01/03 02:40:47;;;;;;;0.20;0.20;;;8.00;99.90;;;;;;5037654;28;20047;-76
2023/01/03 02:43:39;;;;;;;1.40;1.30;;;7.90;99.90;;;;;;5043875;28;20031;-76
2023/01/03 02:46:15;;;;;;;0.95;0.52;;;7.90;99.90;;;;;;5039042;28;20033;-76
2023/01/03 02:49:10;;;;;;;0.60;0.60;;;7.90;99.90;;;;;;5043733;28;20041;-76
2023/01/03 02:51:45;;;;;;;0.30;0.30;;;7.90;99.90;;;;;;5036474;28;20037;-76
2023/01/03 02:54:18;;;;;;;0.98;0.57;;;8.00;99.90;;;;;;5044151;28;20562;-77
2023/01/03 02:57:16;;;;;;;0.47;0.47;;;8.00;99.90;;;;;;5043901;28;20029;-77
2023/01/03 03:00:13;;;;;;;0.52;0.52;;;8.00;99.90;;;;;;5046091;28;20040;-77
2023/01/03 03:02:44;;;;;;;0.30;0.30;;;8.00;99.90;;;;;;5038087;28;20570;-77
2023/01/03 03:05:14;;;;;;;4.00;1.13;;;8.00;99.90;;;;;;5049783;28;20056;-78
2023/01/03 03:07:40;;;;;;;0.40;0.40;;;7.90;99.90;;;;;;5042325;28;20160;-76
2023/01/03 03:13:14;;;;;;;0.77;0.52;;;7.90;99.90;;;;;;5040540;28;20294;-77
2023/01/03 03:15:49;;;;;;;0.85;0.68;;;8.00;99.90;;;;;;5033159;28;20063;-77
2023/01/03 03:18:50;;;;;;;0.35;0.35;;;7.90;99.90;;;;;;5054021;28;20029;-78
2023/01/03 03:26:59;;;;;;;0.47;0.47;;;7.60;99.90;;;;;;5046251;28;20043;-78
2023/01/03 03:29:26;;;;;;;0.68;0.52;;;7.60;99.90;;;;;;5043272;28;20031;-78
2023/01/03 03:31:53;;;;;;;1.08;0.70;;;7.70;99.90;;;;;;5046656;28;20059;-78
2023/01/03 03:34:31;;;;;;;0.28;0.28;;;7.70;99.90;;;;;;5044507;28;20403;-77
2023/01/03 03:37:04;;;;;;;0.52;0.52;;;7.70;99.90;;;;;;5042461;28;20381;-78
2023/01/03 03:45:23;;;;;;;0.60;0.57;;;7.80;99.90;;;;;;5043206;28;20063;-77
2023/01/03 03:48:01;;;;;;;;;;;7.80;99.90;;;;;;5041308;28;20041;-77
2023/01/03 03:50:37;;;;;;;0.30;0.30;;;7.80;99.90;;;;;;5042893;28;19912;-76
2023/01/03 03:53:06;;;;;;;0.75;0.75;;;7.90;99.90;;;;;;5036306;28;20032;-77
2023/01/03 03:55:38;;;;;;;0.25;0.25;;;7.90;99.90;;;;;;5042790;28;20052;-76
2023/01/03 03:58:35;;;;;;;0.65;0.65;;;7.80;99.90;;;;;;5042509;28;20063;-77
2023/01/03 04:01:02;;;;;;;0.45;0.45;;;7.90;99.90;;;;;;5042049;28;20459;-77
2023/01/03 04:03:29;;;;;;;0.77;0.77;;;7.90;99.90;;;;;;5042740;28;20111;-78
2023/01/03 04:05:57;;;;;;;;;;;7.90;99.90;;;;;;5042458;28;20043;-77
2023/01/03 04:08:23;;;;;;;0.32;0.32;;;7.90;99.90;;;;;;5041704;28;19974;-78
2023/01/03 04:10:49;;;;;;;0.43;0.43;;;7.80;99.90;;;;;;5037881;28;20032;-78
2023/01/03 04:13:15;;;;;;;2.73;0.93;;;7.80;99.90;;;;;;5042363;28;20032;-78
2023/01/03 04:15:41;;;;;;;27.83;1.50;;;7.80;99.90;;;;;;5042663;28;20025;-76
2023/01/03 04:18:06;;;;;;;0.20;0.20;;;7.70;99.90;;;;;;5042376;28;20777;-77
2023/01/03 04:20:32;;;;;;;0.40;0.40;;;7.70;99.90;;;;;;5042652;28;20033;-76
2023/01/03 04:22:58;;;;;;;0.93;0.93;;;7.70;99.90;;;;;;5042617;28;20025;-77
2023/01/03 04:25:24;;;;;;;0.82;0.63;;;7.60;99.90;;;;;;5042686;28;20118;-77
2023/01/03 04:27:50;;;;;;;0.32;0.32;;;7.70;99.90;;;;;;5056093;28;20037;-77
2023/01/03 04:30:16;;;;;;;1.30;1.15;;;7.70;99.90;;;;;;5042629;28;20085;-77
2023/01/03 04:32:41;;;;;;;0.60;0.60;;;7.60;99.90;;;;;;5042061;28;20032;-76
2023/01/03 04:35:07;;;;;;;0.43;0.43;;;7.60;99.90;;;;;;5042527;28;20035;-77
2023/01/03 04:37:33;;;;;;;0.30;0.30;;;7.60;99.90;;;;;;5042555;28;20443;-77
2023/01/03 04:39:59;;;;;;;1.17;1.08;;;7.60;99.90;;;;;;5042160;28;20036;-77
2023/01/03 04:45:09;;;;;;;0.35;0.35;;;7.60;99.90;;;;;;5042329;28;20032;-77
2023/01/03 04:47:35;;;;;;;0.57;0.57;;;7.40;99.90;;;;;;5042201;28;20789;-77
2023/01/03 04:50:01;;;;;;;0.45;0.45;;;7.40;99.90;;;;;;5040699;28;20036;-76
2023/01/03 04:52:28;;;;;;;0.30;0.30;;;7.50;99.90;;;;;;5046885;28;20121;-78
2023/01/03 04:54:53;;;;;;;;;;;7.40;99.90;;;;;;5043246;28;20195;-78
2023/01/03 04:57:19;;;;;;;0.20;0.20;;;7.40;99.90;;;;;;5041875;28;20698;-78
2023/01/03 04:59:45;;;;;;;0.63;0.63;;;7.40;99.90;;;;;;5041771;28;20029;-78
2023/01/03 05:02:11;;;;;;;0.55;0.55;;;7.40;99.90;;;;;;5041636;28;20040;-78
2023/01/03 05:04:36;;;;;;;0.30;0.30;;;7.50;99.90;;;;;;5041237;28;20035;-78
2023/01/03 05:07:02;;;;;;;0.25;0.25;;;7.40;99.90;;;;;;5040823;28;20136;-78
2023/01/03 05:09:28;;;;;;;0.32;0.32;;;7.40;99.90;;;;;;5032864;28;20033;-77
2023/01/03 05:11:54;;;;;;;1.00;0.63;;;7.30;99.90;;;;;;5041691;28;20823;-77
2023/01/03 05:14:20;;;;;;;0.57;0.57;;;7.30;99.90;;;;;;5041171;28;20500;-78
2023/01/03 05:16:45;;;;;;;0.35;0.35;;;7.30;99.90;;;;;;5041689;28;20111;-78
2023/01/03 05:19:11;;;;;;;0.13;0.13;;;7.30;99.90;;;;;;5041636;28;20078;-77
2023/01/03 05:27:07;;;;;;;0.22;0.22;;;7.20;99.90;;;;;;5039764;28;20036;-76
2023/01/03 05:29:34;;;;;;;0.43;0.43;;;7.20;99.90;;;;;;5041423;28;20041;-76
2023/01/03 05:32:00;;;;;;;0.20;0.20;;;7.00;99.90;;;;;;5041093;28;20032;-77
2023/01/03 05:34:26;;;;;;;0.20;0.20;;;7.00;99.90;;;;;;5042000;28;20029;-76
2023/01/03 05:36:52;;;;;;;0.98;0.65;;;7.00;99.90;;;;;;5041231;28;20037;-77
2023/01/03 05:39:17;;;;;;;0.28;0.28;;;7.00;99.90;;;;;;5040527;28;20803;-77
2023/01/03 05:41:58;;;;;;;0.10;0.10;;;7.10;99.90;;;;;;5041574;28;20415;-77
2023/01/03 05:44:24;;;;;;;0.70;0.70;;;7.10;99.90;;;;;;5032949;28;20029;-77
2023/01/03 05:46:50;;;;;;;0.40;0.40;;;7.20;99.90;;;;;;5042624;28;20021;-76
2023/01/03 05:49:16;;;;;;;1.27;1.17;;;7.20;99.90;;;;;;5041025;28;20043;-76
2023/01/03 05:51:44;;;;;;;6.47;0.63;;;7.20;99.90;;;;;;5038801;28;20103;-77
2023/01/03 05:54:17;;;;;;;0.30;0.30;;;7.20;99.90;;;;;;5040275;28;20126;-77
2023/01/03 05:56:43;;;;;;;0.22;0.20;;;7.10;99.90;;;;;;5038193;28;20021;-77
2023/01/03 05:59:09;;;;;;;2.30;1.40;;;7.10;99.90;;;;;;5041496;28;20036;-78
2023/01/03 06:01:35;;;;;;;2.65;0.55;;;7.10;99.90;;;;;;5039077;28;20059;-78
2023/01/03 06:04:01;;;;;;;0.30;0.30;;;7.00;99.90;;;;;;5040693;28;20508;-77
2023/01/03 06:06:27;;;;;;;0.40;0.40;;;6.90;99.90;;;;;;5035231;28;20033;-77
2023/01/03 06:08:53;;;;;;;0.70;0.70;;;6.90;99.90;;;;;;5033117;28;20057;-78
2023/01/03 06:11:19;;;;;;;0.47;0.47;;;6.90;99.90;;;;;;5026309;28;20021;-78
2023/01/03 06:13:45;;;;;;;0.10;0.10;;;7.00;99.90;;;;;;5025178;28;20041;-77
2023/01/03 06:19:01;;;;;;;0.52;0.52;;;7.10;99.90;;;;;;5032269;28;20044;-79
2023/01/03 06:21:27;;;;;;;2.83;1.10;;;7.10;99.90;;;;;;5047538;28;20130;-77
2023/01/03 06:23:52;;;;;;;0.50;0.50;;;7.20;99.90;;;;;;5044228;28;20543;-77
2023/01/03 06:26:21;;;;;;;0.32;0.32;;;7.10;99.90;;;;;;5060651;28;20033;-77
2023/01/03 06:28:47;;;;;;;0.10;0.10;;;7.10;99.90;;;;;;5040365;28;20140;-77
2023/01/03 06:31:13;;;;;;;0.20;0.20;;;7.10;99.90;;;;;;5028294;28;20025;-77
2023/01/03 06:33:39;;;;;;;0.30;0.30;;;7.10;99.90;;;;;;5036904;28;20124;-77
2023/01/03 06:36:08;;;;;;;0.28;0.28;;;7.00;99.90;;;;;;5049321;28;20017;-77
2023/01/03 06:38:34;;;;;;;0.20;0.20;;;7.00;99.90;;;;;;5046013;28;20451;-77
2023/01/03 06:41:00;;;;;;;0.88;0.57;;;7.00;99.90;;;;;;5051780;28;20024;-77
2023/01/03 06:43:26;;;;;;;0.10;0.10;;;6.80;99.90;;;;;;5053632;28;20748;-77
2023/01/03 06:54:21;;;;;;;0.43;0.43;;;6.70;99.90;;;;;;5043631;28;20033;-76
2023/01/03 06:56:48;;;;;;;0.30;0.30;;;6.70;99.90;;;;;;5035702;28;20020;-76
2023/01/03 06:59:14;;;;;;;0.20;0.20;;;6.80;99.90;;;;;;5035724;28;20040;-76
2023/01/03 07:01:40;;;;;;;0.10;0.10;;;6.60;99.90;;;;;;5030756;28;20483;-76
2023/01/03 07:04:06;;;;;;;0.85;0.47;;;6.60;99.90;;;;;;5044269;28;20039;-76
2023/01/03 07:06:31;;;;;;;1.20;0.98;;;6.60;99.90;;;;;;5036797;28;20032;-76
2023/01/03 07:08:57;;;;;;;0.38;0.38;;;6.70;99.90;;;;;;5043319;28;20044;-79
2023/01/03 07:11:23;;;;;;;0.65;0.65;;;6.70;99.90;;;;;;5044314;28;20025;-77
2023/01/03 07:13:59;;;;;;;1.08;1.08;;;6.60;99.90;;;;;;5042414;28;20056;-77
2023/01/03 07:16:38;;;;;;;1.85;1.58;;;6.50;99.90;;;;;;5044289;28;20017;-77
2023/01/03 07:19:06;;;;;;;0.45;0.28;;;6.60;99.90;;;;;;5034813;28;20037;-77
2023/01/03 07:21:33;;;;;;;0.25;0.25;;;6.60;99.90;;;;;;5049602;28;20187;-77
2023/01/03 07:24:01;;;;;;;0.50;0.50;;;6.70;99.90;;;;;;5035432;28;20033;-76
2023/01/03 07:26:29;;;;;;;0.10;0.10;;;6.60;99.90;;;;;;5034817;28;20025;-76
2023/01/03 07:28:55;;;;;;;0.20;0.20;;;6.40;99.90;;;;;;5044115;28;20090;-76
2023/01/03 07:31:21;;;;;;;0.10;0.10;;;6.50;99.90;;;;;;5042355;28;20029;-76
2023/01/03 07:33:47;;;;;;;0.83;0.83;;;6.40;99.90;;;;;;5030453;28;20511;-76
2023/01/03 07:36:14;;;;;;;9.35;0.68;;;6.40;99.90;;;;;;5042209;28;20033;-76
2023/01/03 07:38:41;;;;;;;;;;;6.40;99.90;;;;;;5044453;28;20109;-76
2023/01/03 07:41:07;;;;;;;0.20;0.20;;;6.50;99.90;;;;;;5043996;28;20520;-75
2023/01/03 07:43:37;;;;;;;0.17;0.17;;;6.60;99.90;;;;;;5043781;28;20547;-75
2023/01/03 07:46:26;;;;;;;0.40;0.40;;;6.60;99.90;;;;;;5043418;28;20029;-75
2023/01/03 07:48:56;;;;;;;0.10;0.10;;;6.70;99.90;;;;;;5043745;28;20071;-77
2023/01/03 07:51:22;;;;;;;0.17;0.17;;;6.60;99.90;;;;;;5041408;28;20033;-76
2023/01/03 07:53:51;;;;;;;0.15;0.15;;;6.70;99.90;;;;;;5043437;28;20037;-76
2023/01/03 07:56:18;;;;;;;0.20;0.20;;;6.70;99.90;;;;;;5043590;28;20059;-75
2023/01/03 07:58:44;;;;;;;;;;;6.60;99.90;;;;;;5049852;28;20030;-76
2023/01/03 08:01:14;;;;;;;0.40;0.40;;;6.70;99.90;;;;;;5043492;28;19915;-77
2023/01/03 08:03:41;;;;;;;0.20;0.20;;;6.60;99.90;;;;;;5035589;28;20445;-75
2023/01/03 08:06:09;;;;;;;0.30;0.30;;;6.70;99.90;;;;;;5041707;28;20029;-77
2023/01/03 08:08:35;;;;;;;0.15;0.15;;;6.80;99.90;;;;;;5042832;28;20045;-76
2023/01/03 08:13:45;;;;;;;1.52;0.95;;;7.00;99.90;;;;;;5042776;28;20067;-76
2023/01/03 08:16:14;;;;;;;0.52;0.52;;;7.10;99.90;;;;;;5043118;28;20254;-75
2023/01/03 08:18:41;;;;;;;0.20;0.20;;;7.10;99.90;;;;;;5041410;28;20693;-76
2023/01/03 08:21:09;;;;;;;0.10;0.10;;;7.00;99.90;;;;;;5042757;28;20745;-75
2023/01/03 08:23:35;;;;;;;0.10;0.10;;;7.10;99.90;;;;;;5043100;28;20033;-76
2023/01/03 08:26:06;;;;;;;0.47;0.38;;;7.00;99.90;;;;;;5043265;28;20523;-76
2023/01/03 08:28:33;;;;;;;0.30;0.30;;;6.90;99.90;;;;;;5042588;28;20709;-76
2023/01/03 08:31:01;;;;;;;;;;;7.00;99.90;;;;;;5042549;28;20498;-76
2023/01/03 08:33:30;;;;;;;0.15;0.15;;;6.90;99.90;;;;;;5043299;28;20523;-75
2023/01/03 08:36:02;;;;;;;0.10;0.10;;;6.80;99.90;;;;;;5042366;28;20025;-76
2023/01/03 08:38:45;;;;;;;0.15;0.15;;;6.80;99.90;;;;;;5035294;28;20040;-75
2023/01/03 08:41:14;;;;;;;5.32;1.50;;;6.80;99.90;;;;;;5032396;28;20017;-75
2023/01/03 08:43:42;;;;;;;0.10;0.10;;;6.90;99.90;;;;;;5042156;28;20051;-76
2023/01/03 08:46:11;;;;;;;0.65;0.25;;;6.90;99.90;;;;;;5041996;28;20130;-75
2023/01/03 08:48:37;;;;;;;0.50;0.50;;;6.90;99.90;;;;;;5040499;28;20040;-75
2023/01/03 08:51:03;;;;;;;0.20;0.20;;;6.90;99.90;;;;;;5038333;28;20021;-77
2023/01/03 08:53:29;;;;;;;0.25;0.25;;;7.00;99.90;;;;;;5044705;28;20036;-75
2023/01/03 08:55:55;;;;;;;0.20;0.20;;;6.90;99.90;;;;;;5050208;28;20037;-76
2023/01/03 08:58:21;;;;;;;0.20;0.20;;;7.00;99.90;;;;;;5039599;28;20036;-76
2023/01/03 09:00:46;;;;;;;0.10;0.10;;;6.90;99.90;;;;;;5042077;28;20036;-76
2023/01/03 09:03:12;;;;;;;0.90;0.60;;;6.90;99.90;;;;;;5042445;28;20029;-75
2023/01/03 09:05:38;;;;;;;0.10;0.10;;;6.90;99.90;;;;;;5049262;28;20040;-75
2023/01/03 09:08:04;;;;;;;0.20;0.20;;;7.10;99.90;;;;;;5039853;28;20535;-76
2023/01/03 09:10:30;;;;;;;0.35;0.35;;;6.90;99.90;;;;;;5041724;28;20032;-77
2023/01/03 09:12:55;;;;;;;0.32;0.32;;;7.00;99.90;;;;;;5040382;28;20032;-76
2023/01/03 09:15:21;;;;;;;0.20;0.20;;;7.00;99.90;;;;;;5042186;28;20029;-76
2023/01/03 09:17:48;;;;;;;0.25;0.25;;;7.10;99.90;;;;;;5042189;28;20052;-76
2023/01/03 09:20:16;;;;;;;2.83;0.65;;;7.20;99.90;;;;;;5042045;28;20028;-76
2023/01/03 09:22:42;;;;;;;0.10;0.10;;;7.10;99.90;;;;;;5041697;28;20087;-77
2023/01/03 09:25:09;;;;;;;0.20;0.20;;;7.10;99.90;;;;;;5040540;28;20492;-75
2023/01/03 09:27:35;;;;;;;2.05;0.82;;;7.20;99.90;;;;;;5041940;28;20067;-75
2023/01/03 09:30:01;;;;;;;0.22;0.22;;;7.30;99.90;;;;;;5041680;28;20838;-76
2023/01/03 09:32:27;;;;;;;0.10;0.10;;;6.90;99.90;;;;;;5041976;28;20039;-75
2023/01/03 09:34:52;;;;;;;0.20;0.20;;;7.20;99.90;;;;;;5041746;28;20039;-76
2023/01/03 09:37:18;;;;;;;0.20;0.20;;;7.20;99.90;;;;;;5041196;28;20033;-75
2023/01/03 09:39:44;;;;;;;0.25;0.25;;;7.20;99.90;;;;;;5042182;28;20032;-76
2023/01/03 09:45:06;;;;;;;0.40;0.40;;;7.40;99.90;;;;;;5042238;28;20040;-76
2023/01/03 09:47:37;;;;;;;0.25;0.25;;;7.30;99.90;;;;;;5041412;28;20519;-75
2023/01/03 09:50:05;;;;;;;0.10;0.10;;;7.60;99.90;;;;;;5041988;28;20031;-75
2023/01/03 10:04:38;;;;;;;0.40;0.40;;;7.70;99.90;;;;;;5036930;28;20158;-75
2023/01/03 10:07:17;;;;;;;0.30;0.30;;;7.80;99.90;;;;;;5039927;28;20061;-76
2023/01/03 10:10:08;;;;;;;0.10;0.10;;;7.60;99.90;;;;;;5045465;28;20079;-76
2023/01/03 10:12:34;;;;;;;0.43;0.43;;;7.60;99.90;;;;;;5039931;28;20029;-77
2023/01/03 10:15:40;;;;;;;0.15;0.15;;;8.00;99.90;;;;;;5045346;28;20545;-77
2023/01/03 10:18:25;;;;;;;0.10;0.10;;;7.90;99.90;;;;;;5045428;28;20583;-76
2023/01/03 10:21:00;;;;;;;0.20;0.20;;;7.60;99.90;;;;;;5044834;28;20136;-76
2023/01/03 10:23:27;;;;;;;0.10;0.10;;;7.60;99.90;;;;;;5045215;28;20067;-77
2023/01/03 10:25:53;;;;;;;0.30;0.30;;;7.60;99.90;;;;;;5044861;28;20717;-76
2023/01/03 10:28:22;;;;;;;0.38;0.38;;;7.60;99.90;;;;;;5044750;28;20179;-76
2023/01/03 10:31:12;;;;;;;0.30;0.30;;;7.70;99.90;;;;;;5043670;28;20052;-77
2023/01/03 10:33:41;;;;;;;0.28;0.28;;;7.90;99.90;;;;;;5044569;28;20036;-76
2023/01/03 10:36:08;;;;;;;1.75;0.90;;;7.80;99.90;;;;;;5042749;28;20553;-76
2023/01/03 10:38:34;;;;;;;0.10;0.10;;;7.50;99.90;;;;;;5044295;28;20033;-76
2023/01/03 10:41:02;;;;;;;0.10;0.10;;;7.60;99.90;;;;;;5044741;28;20551;-75
2023/01/03 10:43:32;;;;;;;0.10;0.10;;;7.80;99.90;;;;;;5044698;28;20233;-76
2023/01/03 10:46:02;;;;;;;0.20;0.20;;;7.70;99.90;;;;;;5044370;28;20571;-75
2023/01/03 10:48:42;;;;;;;0.20;0.20;;;7.80;99.90;;;;;;5044551;28;20041;-76
2023/01/03 10:51:23;;;;;;;0.15;0.15;;;7.80;99.90;;;;;;5047270;28;20032;-75
2023/01/03 10:53:51;;;;;;;0.20;0.20;;;7.80;99.90;;;;;;5044299;28;20112;-76
2023/01/03 10:56:19;;;;;;;0.90;0.30;;;7.80;99.90;;;;;;5044857;28;20025;-77
2023/01/03 10:58:44;;;;;;;0.20;0.20;;;7.80;99.90;;;;;;5045146;28;20112;-76
2023/01/03 11:01:22;;;;;;;0.50;0.40;;;8.00;99.90;;;;;;5043499;28;20463;-76
2023/01/03 11:04:18;;;;;;;0.10;0.10;;;8.10;99.90;;;;;;5043902;28;20040;-75
2023/01/03 11:07:07;;;;;;;0.10;0.10;;;8.10;99.90;;;;;;5043251;28;20663;-75
2023/01/03 11:09:54;;;;;;;0.35;0.35;;;8.10;99.90;;;;;;5044352;28;20036;-77
2023/01/03 11:12:33;;;;;;;0.20;0.20;;;8.10;99.90;;;;;;5036620;28;20204;-77
2023/01/03 11:15:00;;;;;;;0.20;0.20;;;8.50;99.90;;;;;;5039937;28;20519;-75
2023/01/03 11:17:28;;;;;;;0.30;0.30;;;8.40;99.90;;;;;;5044151;28;20029;-75
2023/01/03 11:19:55;;;;;;;0.10;0.10;;;8.00;99.90;;;;;;5044434;28;20035;-76
2023/01/03 11:22:23;;;;;;;;;;;8.50;99.90;;;;;;5045051;28;20032;-76
2023/01/03 11:24:55;;;;;;;0.40;0.40;;;8.80;99.90;;;;;;5038160;28;19923;-76
2023/01/03 11:27:23;;;;;;;0.10;0.10;;;9.00;99.90;;;;;;5044282;28;20131;-76
2023/01/03 11:30:14;;;;;;;0.10;0.10;;;8.90;99.90;;;;;;5043755;28;20531;-75
2023/01/03 11:32:42;;;;;;;0.65;0.43;;;8.70;99.90;;;;;;5035605;28;20490;-76
2023/01/03 11:35:27;;;;;;;0.10;0.10;;;8.70;99.90;;;;;;5044527;28;20032;-77
2023/01/03 11:38:29;;;;;;;0.10;0.10;;;8.70;99.90;;;;;;5043348;28;20051;-76
2023/01/03 11:41:16;;;;;;;0.43;0.43;;;9.10;99.90;;;;;;5043263;28;20024;-76
2023/01/03 11:43:51;;;;;;;2.53;0.82;;;8.80;99.90;;;;;;5043138;28;20021;-76
2023/01/03 11:46:54;;;;;;;0.10;0.10;;;9.20;99.90;;;;;;5043204;28;20047;-75
2023/01/03 11:50:04;;;;;;;0.10;0.10;;;9.00;99.90;;;;;;5031412;28;20056;-75
2023/01/03 11:52:48;;;;;;;0.20;0.20;;;8.70;99.90;;;;;;5022637;28;20041;-75
2023/01/03 11:55:29;;;;;;;0.35;0.35;;;8.50;99.90;;;;;;5043745;28;20033;-76
2023/01/03 11:58:01;;;;;;;0.10;0.10;;;8.50;99.90;;;;;;5042976;28;20029;-75
2023/01/03 12:00:42;;;;;;;0.20;0.20;;;8.80;99.90;;;;;;5042778;28;20025;-75
2023/01/03 12:03:07;;;;;;;0.30;0.30;;;8.60;99.90;;;;;;5043520;28;20025;-75
2023/01/03 12:05:43;;;;;;;0.10;0.10;;;8.60;99.90;;;;;;5048374;28;20078;-77
2023/01/03 12:08:34;;;;;;;0.70;0.70;;;8.60;99.90;;;;;;5043345;28;20066;-77
2023/01/03 12:11:33;;;;;;;0.10;0.10;;;8.50;99.90;;;;;;5030424;28;20064;-75
2023/01/03 12:14:12;;;;;;;0.70;0.30;;;8.20;99.90;;;;;;5019388;28;20042;-76
2023/01/03 12:16:53;;;;;;;0.20;0.20;;;8.00;99.90;;;;;;5031975;28;20021;-76
2023/01/03 12:19:31;;;;;;;0.10;0.10;;;7.90;99.90;;;;;;5043096;28;20105;-76
2023/01/03 12:22:09;;;;;;;0.10;0.10;;;7.70;99.90;;;;;;5043522;28;20040;-76
2023/01/03 12:25:08;;;;;;;0.15;0.15;;;7.80;99.90;;;;;;5034886;28;20487;-75
2023/01/03 12:27:43;;;;;;;0.10;0.10;;;7.70;99.90;;;;;;5029838;28;20033;-77
2023/01/03 12:30:30;;;;;;;0.17;0.17;;;7.70;99.90;;;;;;5043233;28;20108;-76
2023/01/03 12:33:30;;;;;;;0.40;0.35;;;7.90;99.90;;;;;;5035442;28;20032;-76
2023/01/03 12:36:26;;;;;;;0.20;0.20;;;7.80;99.90;;;;;;5031030;28;20571;-76
2023/01/03 12:39:18;;;;;;;0.20;0.20;;;7.90;99.90;;;;;;5040654;28;20506;-77
2023/01/03 12:42:28;;;;;;;0.20;0.20;;;8.10;99.90;;;;;;5038956;28;20033;-77
2023/01/03 12:45:07;;;;;;;0.10;0.10;;;8.50;99.90;;;;;;5026664;28;20039;-76
2023/01/03 12:48:12;;;;;;;0.17;0.17;;;8.80;99.90;;;;;;5047336;28;20076;-77
2023/01/03 12:50:44;;;;;;;0.20;0.20;;;9.10;99.90;;;;;;5039037;28;20693;-75
2023/01/03 12:53:20;;;;;;;0.10;0.10;;;9.50;99.90;;;;;;5046786;28;20021;-75
2023/01/03 12:56:10;;;;;;;0.10;0.10;;;9.80;99.90;;;;;;5042188;28;20052;-76
2023/01/03 12:59:12;;;;;;;0.20;0.20;;;9.90;99.90;;;;;;5042509;28;20033;-76
2023/01/03 13:01:52;;;;;;;0.10;0.10;;;9.80;99.90;;;;;;5042282;28;20629;-77
2023/01/03 13:04:37;;;;;;;0.10;0.10;;;9.70;99.90;;;;;;5042292;28;20029;-76
2023/01/03 13:07:24;;;;;;;0.10;0.10;;;9.60;99.90;;;;;;5041341;28;20048;-77
2023/01/03 13:10:05;;;;;;;0.25;0.25;;;9.50;99.90;;;;;;5042269;28;20063;-75
2023/01/03 13:12:35;;;;;;;0.17;0.17;;;9.40;99.90;;;;;;5036580;28;20025;-76
2023/01/03 13:15:30;;;;;;;0.17;0.17;;;9.30;99.90;;;;;;5042576;28;20017;-76
2023/01/03 13:18:20;;;;;;;0.20;0.20;;;9.40;99.90;;;;;;5042028;28;20472;-75
2023/01/03 13:20:53;;;;;;;0.10;0.10;;;9.40;99.90;;;;;;5037802;28;20025;-76
2023/01/03 13:23:31;;;;;;;0.10;0.10;;;9.60;99.90;;;;;;5041673;28;20032;-76
2023/01/03 13:26:05;;;;;;;0.10;0.10;;;9.50;99.90;;;;;;5045826;28;20036;-75
2023/01/03 13:28:35;;;;;;;0.10;0.10;;;9.50;99.90;;;;;;5046235;28;20037;-75
2023/01/03 13:31:19;;;;;;;0.10;0.10;;;9.40;99.90;;;;;;5046069;28;20029;-76
2023/01/03 13:33:55;;;;;;;0.40;0.22;;;9.60;99.90;;;;;;5044685;28;20484;-75
2023/01/03 13:36:23;;;;;;;0.20;0.20;;;9.80;99.90;;;;;;5045550;28;20048;-76
2023/01/03 13:38:49;;;;;;;0.30;0.30;;;9.60;99.90;;;;;;5044672;28;20060;-77
2023/01/03 13:41:35;;;;;;;0.20;0.20;;;9.50;99.90;;;;;;5046182;28;20151;-76
2023/01/03 13:44:20;;;;;;;0.70;0.70;;;9.40;99.90;;;;;;5045859;28;20486;-76
2023/01/03 13:46:46;;;;;;;0.35;0.17;;;9.30;99.90;;;;;;5045805;28;20025;-76
2023/01/03 13:49:24;;;;;;;0.10;0.10;;;9.40;99.90;;;;;;5045765;28;20047;-76
2023/01/03 13:51:53;;;;;;;0.20;0.20;;;9.50;99.90;;;;;;5047863;28;20028;-75
2023/01/03 13:54:18;;;;;;;0.15;0.15;;;9.50;99.90;;;;;;5045906;28;20021;-76
2023/01/03 13:56:44;;;;;;;0.10;0.10;;;9.50;99.90;;;;;;5045921;28;20067;-76
2023/01/03 13:59:25;;;;;;;0.20;0.20;;;9.40;99.90;;;;;;5045632;28;20490;-75
2023/01/03 14:01:50;;;;;;;0.30;0.30;;;9.40;99.90;;;;;;5045791;28;20060;-76
2023/01/03 14:04:37;;;;;;;0.20;0.20;;;9.40;99.90;;;;;;5045735;28;20116;-75
2023/01/03 14:07:12;;;;;;;0.17;0.17;;;9.40;99.90;;;;;;5041936;28;20057;-77
2023/01/03 14:10:01;;;;;;;0.20;0.20;;;9.60;99.90;;;;;;5045934;28;20044;-76
2023/01/03 14:12:58;;;;;;;1.13;0.38;;;9.60;99.90;;;;;;5044760;28;20820;-76
2023/01/03 14:15:25;;;;;;;0.15;0.15;;;9.40;99.90;;;;;;5045576;28;20036;-76
2023/01/03 14:17:57;;;;;;;0.50;0.50;;;9.40;99.90;;;;;;5045602;28;20373;-76
2023/01/03 14:20:27;;;;;;;0.52;0.52;;;9.40;99.90;;;;;;5044938;28;20040;-76
2023/01/03 14:22:54;;;;;;;0.20;0.20;;;9.30;99.90;;;;;;5045773;28;20031;-77